Stephen R Warden — WDC6523 — position and weather

sailwx.info

Track history (hours):
 
Tides and Currents Weather Stations Pressure Air Temp Water Temp Dewpoint Dewpoint Depression Visibility Wind Speed Wind Dir Waves Ship Positions

Stephen R Warden

Owner: American Commercial Lines LLC, Jeffersonvile, IN. More information available from US FCC via Universal Licensing System and Coast Guard Vessel Documentation Center.

Last reported at 2015-Apr-17 02:33 UTC. Time now 2015-Apr-18 07:19 UTC.
Position N 29°55' W 090°08'.

Length 37 m; draft 3 m.

Type: Towing. MMSI: 367057460.

Date/timePositionNaut miles runAvg speedWind from/ knotsBaromVisibWave heightAir tempDewpointWater temp
2015-Apr-17 02:33N 29°55' W 090°08'3 3.1
2015-Apr-17 01:32N 29°55' W 090°05'3 3.1
2015-Apr-17 00:32N 29°57' W 090°02'3 3.0
2015-Apr-16 23:33N 29°56' W 089°59'0 0.0
2015-Apr-16 22:33N 29°56' W 089°59'0 0.0
2015-Apr-16 21:33N 29°56' W 089°59'0 0.0
2015-Apr-16 20:33N 29°56' W 089°59'2 2.1
2015-Apr-16 19:31N 29°55' W 089°57'1 0.9
2015-Apr-16 18:18N 29°55' W 089°56'0 0.2
2015-Apr-16 17:30N 29°55' W 089°56'0 0.0
2015-Apr-16 16:12N 29°55' W 089°56'0 0.0
2015-Apr-16 15:30N 29°55' W 089°56'0 0.0
2015-Apr-16 14:31N 29°55' W 089°56'5 0.3
2015-Apr-15 22:27N 29°57' W 090°02'13 0.9
2015-Apr-15 07:25N 29°44' W 089°60'13 0.5
2015-Apr-14 02:20N 29°57' W 090°01'6 6.0
2015-Apr-14 01:20N 29°56' W 090°08'3 1.0
2015-Apr-13 22:31N 29°56' W 090°11'  
2015-Apr-10 22:04N 29°55' W 089°56'0 0.4
2015-Apr-10 21:21N 29°55' W 089°56'4 0.9
2015-Apr-10 16:32N 29°57' W 090°01'2 2.2
2015-Apr-10 15:33N 29°57' W 090°03'6 0.7
2015-Apr-10 07:33N 29°57' W 090°10'4 3.5
2015-Apr-10 06:31N 29°55' W 090°07'5 4.7
2015-Apr-10 05:27N 29°57' W 090°02'  
Track history (hours):
 
Tides and Currents Weather Stations Pressure Air Temp Water Temp Dewpoint Dewpoint Depression Visibility Wind Speed Wind Dir Waves Ship Positions

Stephen R Warden

Owner: American Commercial Lines LLC, Jeffersonvile, IN. More information available from US FCC via Universal Licensing System and Coast Guard Vessel Documentation Center.

Last reported at 2015-Apr-17 02:33 UTC. Time now 2015-Apr-18 07:19 UTC.
Position N 29°55' W 090°08'.

Length 37 m; draft 3 m.

Type: Towing. MMSI: 367057460.

Date/timePositionNaut miles runAvg speedWind from/ knotsBaromVisibWave heightAir tempDewpointWater temp
2015-Apr-17 02:33N 29°55' W 090°08'3 3.1
2015-Apr-17 01:32N 29°55' W 090°05'3 3.1
2015-Apr-17 00:32N 29°57' W 090°02'3 3.0
2015-Apr-16 23:33N 29°56' W 089°59'0 0.0
2015-Apr-16 22:33N 29°56' W 089°59'0 0.0
2015-Apr-16 21:33N 29°56' W 089°59'0 0.0
2015-Apr-16 20:33N 29°56' W 089°59'2 2.1
2015-Apr-16 19:31N 29°55' W 089°57'1 0.9
2015-Apr-16 18:18N 29°55' W 089°56'0 0.2
2015-Apr-16 17:30N 29°55' W 089°56'0 0.0
2015-Apr-16 16:12N 29°55' W 089°56'0 0.0
2015-Apr-16 15:30N 29°55' W 089°56'0 0.0
2015-Apr-16 14:31N 29°55' W 089°56'5 0.3
2015-Apr-15 22:27N 29°57' W 090°02'13 0.9
2015-Apr-15 07:25N 29°44' W 089°60'13 0.5
2015-Apr-14 02:20N 29°57' W 090°01'6 6.0
2015-Apr-14 01:20N 29°56' W 090°08'3 1.0
2015-Apr-13 22:31N 29°56' W 090°11'  
2015-Apr-10 22:04N 29°55' W 089°56'0 0.4
2015-Apr-10 21:21N 29°55' W 089°56'4 0.9
2015-Apr-10 16:32N 29°57' W 090°01'2 2.2
2015-Apr-10 15:33N 29°57' W 090°03'6 0.7
2015-Apr-10 07:33N 29°57' W 090°10'4 3.5
2015-Apr-10 06:31N 29°55' W 090°07'5 4.7
2015-Apr-10 05:27N 29°57' W 090°02'  

Dump ship's entire track history